Time;durP1;ratioP1;P1;durP2;ratioP2;P2;SDS_P1;SDS_P2;PMS_P1;PMS_P2;Temp;Humidity;BMP_temperature;BMP_pressure;BME280_temperature;BME280_humidity;BME280_pressure;Samples;Min_cycle;Max_cycle;Signal;HPM_P1;HPM_P2
2022/10/08 00:02:22;;;;;;;9.07;2.92;;;13.50;99.90;;;;;;5034922;28;20079;-73
2022/10/08 00:04:47;;;;;;;8.52;3.05;;;13.50;99.90;;;;;;5048331;28;20048;-74
2022/10/08 00:07:13;;;;;;;7.32;3.25;;;13.40;99.90;;;;;;5053539;28;20143;-75
2022/10/08 00:09:38;;;;;;;6.13;2.35;;;13.50;99.90;;;;;;5056875;28;20056;-73
2022/10/08 00:12:04;;;;;;;6.43;2.35;;;13.40;99.90;;;;;;5057089;28;20041;-73
2022/10/08 00:14:30;;;;;;;5.20;3.15;;;13.40;99.90;;;;;;5056297;28;20629;-74
2022/10/08 00:16:56;;;;;;;6.22;2.47;;;13.40;99.90;;;;;;5058111;28;20079;-73
2022/10/08 00:19:21;;;;;;;4.20;2.60;;;13.40;99.90;;;;;;5051065;28;20790;-73
2022/10/08 00:21:49;;;;;;;4.55;3.08;;;13.40;99.90;;;;;;5045347;28;20067;-74
2022/10/08 00:24:16;;;;;;;4.57;2.05;;;13.40;99.90;;;;;;5049602;28;20057;-73
2022/10/08 00:26:42;;;;;;;5.88;2.58;;;13.30;99.90;;;;;;5063688;28;20105;-75
2022/10/08 00:29:10;;;;;;;5.90;2.97;;;13.30;99.90;;;;;;5059089;28;20049;-75
2022/10/08 00:31:39;;;;;;;5.20;2.47;;;13.30;99.90;;;;;;5054221;28;20053;-73
2022/10/08 00:34:08;;;;;;;6.18;2.40;;;13.30;99.90;;;;;;5057960;28;20075;-75
2022/10/08 00:36:36;;;;;;;6.00;2.20;;;13.20;99.90;;;;;;5061372;28;20049;-73
2022/10/08 00:39:12;;;;;;;5.38;2.60;;;13.20;99.90;;;;;;5052773;28;20044;-73
2022/10/08 00:41:38;;;;;;;5.43;2.67;;;13.20;99.90;;;;;;5050487;28;20080;-74
2022/10/08 00:44:42;;;;;;;5.35;3.13;;;13.20;99.90;;;;;;5050595;28;20055;-74
2022/10/08 00:47:32;;;;;;;6.05;2.58;;;13.20;99.90;;;;;;5057442;28;20040;-73
2022/10/08 00:50:00;;;;;;;3.95;2.40;;;13.20;99.90;;;;;;5060916;28;20065;-73
2022/10/08 00:52:32;;;;;;;5.00;2.13;;;13.20;99.90;;;;;;5059352;28;20522;-74
2022/10/08 00:54:58;;;;;;;7.47;2.75;;;13.20;99.90;;;;;;5059604;28;20128;-74
2022/10/08 00:57:25;;;;;;;4.72;1.90;;;13.20;99.90;;;;;;5056780;28;20099;-74
2022/10/08 00:59:51;;;;;;;5.63;1.80;;;13.20;99.90;;;;;;5058310;28;20068;-74
2022/10/08 01:02:18;;;;;;;3.15;2.10;;;13.20;99.90;;;;;;5059198;28;20044;-74
2022/10/08 01:04:44;;;;;;;4.88;1.55;;;13.20;99.90;;;;;;5060144;28;20136;-74
2022/10/08 01:07:25;;;;;;;2.10;1.63;;;13.30;99.90;;;;;;5057613;28;20048;-74
2022/10/08 01:10:21;;;;;;;10.15;2.53;;;13.20;99.90;;;;;;5060250;28;20048;-74
2022/10/08 01:13:12;;;;;;;4.65;1.90;;;13.20;99.90;;;;;;5058194;28;20045;-74
2022/10/08 01:15:53;;;;;;;4.65;1.90;;;13.30;99.90;;;;;;5059953;28;20163;-74
2022/10/08 01:18:31;;;;;;;5.60;2.75;;;13.20;99.90;;;;;;5059615;28;20074;-75
2022/10/08 01:21:16;;;;;;;6.63;2.00;;;13.20;99.90;;;;;;5049689;28;20052;-74
2022/10/08 01:23:56;;;;;;;3.22;1.85;;;13.20;99.90;;;;;;5055404;28;20044;-74
2022/10/08 01:26:39;;;;;;;1.83;1.73;;;13.10;99.90;;;;;;5055586;28;20056;-74
2022/10/08 01:29:17;;;;;;;2.90;1.98;;;13.10;99.90;;;;;;5051934;28;20049;-75
2022/10/08 01:31:48;;;;;;;3.88;1.63;;;13.10;99.90;;;;;;5052826;28;20270;-75
2022/10/08 01:34:36;;;;;;;4.32;1.55;;;13.10;99.90;;;;;;5060553;28;20115;-75
2022/10/08 01:37:03;;;;;;;3.17;1.50;;;13.00;99.90;;;;;;5053347;28;20119;-75
2022/10/08 01:39:33;;;;;;;9.98;1.90;;;13.00;99.90;;;;;;5060012;28;20124;-76
2022/10/08 01:42:02;;;;;;;3.13;1.20;;;13.00;99.90;;;;;;5055888;28;20102;-76
2022/10/08 01:44:41;;;;;;;4.07;1.63;;;13.00;99.90;;;;;;5058240;28;20106;-76
2022/10/08 01:47:12;;;;;;;3.28;1.77;;;13.00;99.90;;;;;;5059336;28;20056;-76
2022/10/08 01:50:06;;;;;;;4.10;1.77;;;13.00;99.90;;;;;;5057777;28;20052;-76
2022/10/08 01:52:39;;;;;;;4.53;2.17;;;12.90;99.90;;;;;;5057561;28;20127;-75
2022/10/08 01:55:12;;;;;;;6.63;1.88;;;12.90;99.90;;;;;;5055758;28;20041;-76
2022/10/08 01:57:40;;;;;;;6.38;1.52;;;12.90;99.90;;;;;;5055865;28;20107;-75
2022/10/08 02:00:10;;;;;;;1.42;1.33;;;12.80;99.90;;;;;;5056375;28;20067;-75
2022/10/08 02:02:35;;;;;;;2.58;1.75;;;12.80;99.90;;;;;;5059494;28;20121;-76
2022/10/08 02:05:03;;;;;;;3.35;1.20;;;12.80;99.90;;;;;;5047211;28;20663;-75
2022/10/08 02:07:32;;;;;;;5.50;1.58;;;12.80;99.90;;;;;;5054823;28;20106;-76
2022/10/08 02:10:10;;;;;;;2.75;1.35;;;12.80;99.90;;;;;;5061441;28;20048;-75
2022/10/08 02:12:37;;;;;;;5.82;1.45;;;12.70;99.90;;;;;;5058078;28;20063;-75
2022/10/08 02:15:04;;;;;;;4.00;1.27;;;12.60;99.90;;;;;;5060212;28;20052;-76
2022/10/08 02:17:51;;;;;;;3.17;1.65;;;12.60;99.90;;;;;;5053402;28;20045;-76
2022/10/08 02:20:32;;;;;;;3.70;1.60;;;12.50;99.90;;;;;;5054057;28;20125;-76
2022/10/08 02:23:15;;;;;;;2.30;1.35;;;12.50;99.90;;;;;;5061585;28;20040;-76
2022/10/08 02:26:08;;;;;;;3.00;1.45;;;12.40;99.90;;;;;;5054093;28;20044;-76
2022/10/08 02:28:37;;;;;;;3.22;1.30;;;12.30;99.90;;;;;;5052508;28;20064;-76
2022/10/08 02:31:13;;;;;;;2.03;1.40;;;12.30;99.90;;;;;;5059757;28;20810;-76
2022/10/08 02:34:03;;;;;;;3.17;1.85;;;12.20;99.90;;;;;;5057674;28;20036;-75
2022/10/08 02:36:34;;;;;;;2.00;1.52;;;12.10;99.90;;;;;;5042578;28;20317;-76
2022/10/08 02:39:05;;;;;;;4.38;1.85;;;12.10;99.90;;;;;;5053798;28;20053;-76
2022/10/08 02:41:38;;;;;;;1.70;1.50;;;12.00;99.90;;;;;;5055273;28;20165;-75
2022/10/08 02:44:11;;;;;;;2.92;2.05;;;12.00;99.90;;;;;;5040605;28;20200;-75
2022/10/08 02:46:38;;;;;;;;;;;12.00;99.90;;;;;;5053825;28;20052;-76
2022/10/08 02:49:17;;;;;;;5.97;1.92;;;11.90;99.90;;;;;;5057852;28;19986;-76
2022/10/08 02:51:49;;;;;;;3.50;2.08;;;11.80;99.90;;;;;;5056624;28;20056;-76
2022/10/08 02:54:20;;;;;;;2.92;1.98;;;11.80;99.90;;;;;;5059433;28;20376;-76
2022/10/08 02:56:57;;;;;;;5.88;1.80;;;11.80;99.90;;;;;;5057167;28;20060;-76
2022/10/08 02:59:24;;;;;;;2.95;2.17;;;11.80;99.90;;;;;;5047813;28;20056;-76
2022/10/08 03:02:03;;;;;;;2.65;2.30;;;11.70;99.90;;;;;;5056181;28;20080;-76
2022/10/08 03:04:40;;;;;;;2.50;1.83;;;11.70;99.90;;;;;;5058334;28;20033;-76
2022/10/08 03:07:07;;;;;;;5.53;2.17;;;11.70;99.90;;;;;;5055736;28;20048;-76
2022/10/08 03:09:37;;;;;;;4.50;2.13;;;11.60;99.90;;;;;;5046038;28;20083;-76
2022/10/08 03:12:05;;;;;;;3.10;2.63;;;11.60;99.90;;;;;;5048961;28;20781;-75
2022/10/08 03:14:41;;;;;;;5.30;2.40;;;11.60;99.90;;;;;;5053287;28;20952;-76
2022/10/08 03:17:08;;;;;;;3.97;2.20;;;11.60;99.90;;;;;;5053110;28;20402;-76
2022/10/08 03:19:34;;;;;;;4.25;2.17;;;11.50;99.90;;;;;;5046950;28;20044;-76
2022/10/08 03:22:01;;;;;;;7.25;2.10;;;11.50;99.90;;;;;;5045862;28;20052;-76
2022/10/08 03:24:27;;;;;;;5.65;3.08;;;11.50;99.90;;;;;;5054895;28;20130;-76
2022/10/08 03:26:53;;;;;;;3.13;2.20;;;11.50;99.90;;;;;;5046188;28;20120;-76
2022/10/08 03:29:19;;;;;;;5.80;2.38;;;11.50;99.90;;;;;;5056242;28;20052;-76
2022/10/08 03:31:49;;;;;;;6.05;2.67;;;11.50;99.90;;;;;;5047186;28;20049;-76
2022/10/08 03:34:14;;;;;;;4.53;3.00;;;11.40;99.90;;;;;;5057141;28;20064;-76
2022/10/08 03:36:40;;;;;;;6.25;2.53;;;11.40;99.90;;;;;;5053025;28;20998;-76
2022/10/08 03:39:07;;;;;;;7.18;2.35;;;11.40;99.90;;;;;;5058341;28;20048;-76
2022/10/08 03:41:33;;;;;;;4.15;2.60;;;11.50;99.90;;;;;;5057706;28;20080;-76
2022/10/08 03:43:59;;;;;;;6.13;2.75;;;11.50;99.90;;;;;;5049071;28;20123;-75
2022/10/08 03:46:25;;;;;;;8.75;3.13;;;11.50;99.90;;;;;;5048433;28;20045;-75
2022/10/08 03:48:51;;;;;;;5.80;2.38;;;11.60;99.90;;;;;;5057862;28;20051;-75
2022/10/08 03:51:18;;;;;;;3.03;2.30;;;11.40;99.90;;;;;;5058361;28;20139;-75
2022/10/08 03:53:44;;;;;;;3.85;2.33;;;11.60;99.90;;;;;;5058499;28;20044;-74
2022/10/08 03:56:13;;;;;;;8.07;2.97;;;11.70;99.90;;;;;;5054270;28;20045;-75
2022/10/08 03:58:39;;;;;;;5.55;2.50;;;11.70;99.90;;;;;;5054512;28;20044;-75
2022/10/08 04:01:12;;;;;;;4.72;2.92;;;11.70;99.90;;;;;;5057793;28;20071;-75
2022/10/08 04:03:38;;;;;;;8.45;2.58;;;11.80;99.90;;;;;;5041849;28;20083;-75
2022/10/08 04:06:04;;;;;;;6.25;2.70;;;11.70;99.90;;;;;;5043416;28;20556;-76
2022/10/08 04:08:30;;;;;;;5.53;2.67;;;11.70;99.90;;;;;;5058929;28;20155;-75
2022/10/08 04:10:56;;;;;;;4.45;2.65;;;11.70;99.90;;;;;;5057270;28;20063;-75
2022/10/08 04:13:22;;;;;;;7.07;4.32;;;11.70;99.90;;;;;;5041037;28;20102;-76
2022/10/08 04:15:49;;;;;;;4.68;2.72;;;11.70;99.90;;;;;;5057985;28;20048;-75
2022/10/08 04:18:15;;;;;;;4.72;2.13;;;11.50;99.90;;;;;;5058572;28;20049;-76
2022/10/08 04:20:42;;;;;;;6.38;2.83;;;11.60;99.90;;;;;;5054009;28;20045;-76
2022/10/08 04:23:09;;;;;;;6.38;2.20;;;11.60;99.90;;;;;;5039305;28;20102;-75
2022/10/08 04:25:35;;;;;;;6.22;2.50;;;11.60;99.90;;;;;;5055335;28;20040;-75
2022/10/08 04:28:04;;;;;;;4.70;2.58;;;11.50;99.90;;;;;;5057752;28;20530;-76
2022/10/08 04:30:30;;;;;;;4.53;2.65;;;11.50;99.90;;;;;;5053286;28;20095;-76
2022/10/08 04:32:57;;;;;;;5.18;2.00;;;11.50;99.90;;;;;;5050016;28;20094;-77
2022/10/08 04:35:23;;;;;;;7.78;2.78;;;12.20;99.90;;;;;;5044547;28;20370;-75
2022/10/08 04:37:49;;;;;;;4.50;2.13;;;11.40;99.90;;;;;;5059219;28;20123;-76
2022/10/08 04:40:15;;;;;;;4.88;2.50;;;11.40;99.90;;;;;;5058285;28;20040;-76
2022/10/08 04:42:40;;;;;;;4.13;2.13;;;11.40;99.90;;;;;;5058562;28;20056;-76
2022/10/08 04:45:06;;;;;;;5.50;2.35;;;11.30;99.90;;;;;;5044622;28;20044;-76
2022/10/08 04:47:32;;;;;;;6.72;2.25;;;11.30;99.90;;;;;;5058829;28;20049;-76
2022/10/08 04:49:57;;;;;;;6.50;2.28;;;11.30;99.90;;;;;;5057993;28;20471;-76
2022/10/08 04:52:23;;;;;;;8.18;2.80;;;10.80;99.90;;;;;;5058551;28;20068;-76
2022/10/08 04:54:49;;;;;;;6.60;2.45;;;11.30;99.90;;;;;;5056097;28;20045;-76
2022/10/08 04:57:14;;;;;;;5.45;2.25;;;11.30;99.90;;;;;;5047286;28;20045;-76
2022/10/08 04:59:40;;;;;;;2.45;1.98;;;11.20;99.90;;;;;;5052168;28;20537;-76
2022/10/08 05:02:06;;;;;;;5.82;1.92;;;11.10;99.90;;;;;;5056952;28;20102;-76
2022/10/08 05:04:31;;;;;;;5.05;2.28;;;11.10;99.90;;;;;;5056883;28;20048;-75
2022/10/08 05:06:57;;;;;;;7.15;2.90;;;11.10;99.90;;;;;;5057501;28;20048;-76
2022/10/08 05:09:23;;;;;;;4.20;2.63;;;11.10;99.90;;;;;;5058821;28;20545;-75
2022/10/08 05:11:50;;;;;;;5.05;2.78;;;11.00;99.90;;;;;;5063044;28;20056;-77
2022/10/08 05:14:16;;;;;;;6.57;2.83;;;11.00;99.90;;;;;;5091891;28;20055;-76
2022/10/08 05:16:41;;;;;;;5.53;3.10;;;11.00;99.90;;;;;;5061503;28;20566;-76
2022/10/08 05:19:08;;;;;;;3.50;2.35;;;11.00;99.90;;;;;;5059726;28;20052;-76
2022/10/08 05:21:33;;;;;;;6.38;3.03;;;11.00;99.90;;;;;;5093328;28;20074;-76
2022/10/08 05:24:06;;;;;;;6.80;2.72;;;11.00;99.90;;;;;;5059910;28;20044;-75
2022/10/08 05:26:35;;;;;;;4.85;2.72;;;11.00;99.90;;;;;;5050833;28;20052;-76
2022/10/08 05:29:01;;;;;;;7.13;3.15;;;11.00;99.90;;;;;;5058968;28;20122;-75
2022/10/08 05:31:28;;;;;;;4.38;2.92;;;11.00;99.90;;;;;;5061484;28;20045;-75
2022/10/08 05:33:54;;;;;;;5.30;2.22;;;11.00;99.90;;;;;;5059550;28;20080;-76
2022/10/08 05:36:23;;;;;;;6.10;2.47;;;11.00;99.90;;;;;;5059413;28;20080;-76
2022/10/08 05:38:49;;;;;;;5.32;2.25;;;10.90;99.90;;;;;;5057499;28;20573;-76
2022/10/08 05:41:19;;;;;;;7.25;3.53;;;11.00;99.90;;;;;;5057811;28;20707;-76
2022/10/08 05:43:45;;;;;;;7.75;2.40;;;10.90;99.90;;;;;;5042408;28;20843;-76
2022/10/08 05:46:12;;;;;;;4.65;2.90;;;10.90;99.90;;;;;;5041387;28;20072;-75
2022/10/08 05:48:38;;;;;;;7.03;3.13;;;10.90;99.90;;;;;;5047708;28;20052;-76
2022/10/08 05:51:06;;;;;;;8.73;3.13;;;11.00;99.90;;;;;;5048985;28;20823;-75
2022/10/08 05:53:36;;;;;;;5.57;2.72;;;11.00;99.90;;;;;;5060480;28;20083;-75
2022/10/08 05:56:04;;;;;;;9.77;2.53;;;10.90;99.90;;;;;;5059372;28;20889;-75
2022/10/08 05:58:32;;;;;;;11.05;3.20;;;10.90;99.90;;;;;;5059665;28;20965;-76
2022/10/08 06:01:04;;;;;;;5.10;3.15;;;10.90;99.90;;;;;;5049467;28;20059;-75
2022/10/08 06:03:30;;;;;;;9.55;2.78;;;10.90;99.90;;;;;;5057147;28;20041;-76
2022/10/08 06:06:04;;;;;;;8.68;2.42;;;10.90;99.90;;;;;;5057580;28;20720;-75
2022/10/08 06:08:31;;;;;;;7.50;2.90;;;10.90;99.90;;;;;;5061233;28;20437;-76
2022/10/08 06:10:56;;;;;;;8.38;2.70;;;10.90;99.90;;;;;;5045230;28;20483;-77
2022/10/08 06:13:23;;;;;;;6.55;3.35;;;11.00;99.90;;;;;;5043443;28;20045;-76
2022/10/08 06:16:00;;;;;;;10.15;2.67;;;10.90;99.90;;;;;;5044768;28;20431;-77
2022/10/08 06:18:29;;;;;;;7.13;2.75;;;11.00;99.90;;;;;;5055272;28;20053;-77
2022/10/08 06:20:55;;;;;;;6.95;2.65;;;11.00;99.90;;;;;;5057738;28;20048;-76
2022/10/08 06:23:22;;;;;;;6.80;3.00;;;11.00;99.90;;;;;;5058423;28;20155;-76
2022/10/08 06:25:48;;;;;;;7.93;3.38;;;11.00;99.90;;;;;;5054224;28;20139;-77
2022/10/08 06:28:15;;;;;;;5.85;2.78;;;11.00;99.90;;;;;;5041368;28;20051;-77
2022/10/08 06:30:41;;;;;;;7.97;2.58;;;11.10;99.90;;;;;;5053515;28;20040;-76
2022/10/08 06:33:08;;;;;;;4.38;2.80;;;11.10;99.90;;;;;;5053029;28;20496;-76
2022/10/08 06:35:34;;;;;;;4.88;2.35;;;11.10;99.90;;;;;;5058521;28;20044;-79
2022/10/08 06:38:01;;;;;;;6.13;2.88;;;11.10;99.90;;;;;;5060489;28;20052;-76
2022/10/08 06:40:27;;;;;;;5.72;2.50;;;11.10;99.90;;;;;;5050684;28;20413;-77
2022/10/08 06:42:52;;;;;;;5.30;2.78;;;11.20;99.90;;;;;;5059165;28;20133;-76
2022/10/08 06:45:18;;;;;;;5.75;2.60;;;11.20;99.90;;;;;;5059038;28;20048;-77
2022/10/08 06:47:43;;;;;;;5.78;2.38;;;11.30;99.90;;;;;;5060378;28;20482;-78
2022/10/08 06:50:09;;;;;;;8.82;2.63;;;11.40;99.90;;;;;;5058206;28;20787;-76
2022/10/08 06:52:35;;;;;;;9.80;3.40;;;11.50;99.90;;;;;;5057174;28;20514;-77
2022/10/08 06:55:00;;;;;;;6.78;2.70;;;11.70;99.90;;;;;;5051521;28;20052;-77
2022/10/08 06:57:27;;;;;;;11.63;2.75;;;11.70;99.90;;;;;;5053996;28;20857;-76
2022/10/08 06:59:53;;;;;;;5.88;2.88;;;11.80;99.90;;;;;;5051386;28;20056;-76
2022/10/08 07:02:19;;;;;;;9.27;2.20;;;11.80;99.90;;;;;;5057847;28;20094;-75
2022/10/08 07:04:45;;;;;;;4.50;2.72;;;11.90;99.90;;;;;;5058320;28;20044;-76
2022/10/08 07:07:11;;;;;;;5.32;2.55;;;12.00;99.90;;;;;;5057735;28;20055;-76
2022/10/08 07:09:36;;;;;;;7.53;2.50;;;12.00;99.90;;;;;;5053418;28;20559;-76
2022/10/08 07:12:02;;;;;;;5.43;2.42;;;12.00;99.90;;;;;;5053699;28;20454;-76
2022/10/08 07:14:28;;;;;;;7.85;2.67;;;12.10;99.90;;;;;;5055781;28;20565;-76
2022/10/08 07:16:54;;;;;;;4.85;2.30;;;12.20;99.90;;;;;;5059280;28;20552;-77
2022/10/08 07:19:19;;;;;;;6.95;1.95;;;12.20;99.90;;;;;;5058325;28;20106;-75
2022/10/08 07:21:45;;;;;;;8.65;2.30;;;12.20;99.90;;;;;;5053762;28;20048;-76
2022/10/08 07:24:10;;;;;;;4.18;2.35;;;12.20;99.90;;;;;;5053863;28;20036;-75
2022/10/08 07:26:36;;;;;;;6.32;2.40;;;12.20;99.90;;;;;;5056641;28;20051;-77
2022/10/08 07:29:10;;;;;;;7.32;1.95;;;12.10;99.90;;;;;;5057634;28;20143;-77
2022/10/08 07:31:37;;;;;;;8.48;2.60;;;12.10;99.90;;;;;;5053679;28;20151;-76
2022/10/08 07:34:05;;;;;;;2.38;1.77;;;12.10;99.90;;;;;;5048528;28;20490;-76
2022/10/08 07:36:31;;;;;;;9.50;2.08;;;12.10;99.90;;;;;;5059278;28;20147;-76
2022/10/08 07:38:59;;;;;;;6.20;2.13;;;12.10;99.90;;;;;;5059418;28;20048;-76
2022/10/08 07:41:25;;;;;;;5.97;1.70;;;12.20;99.90;;;;;;5055038;28;20044;-76
2022/10/08 07:43:58;;;;;;;4.25;2.17;;;12.20;99.90;;;;;;5056051;28;20118;-76
2022/10/08 07:46:29;;;;;;;8.60;5.05;;;12.20;99.90;;;;;;5051386;28;20137;-76
2022/10/08 07:48:57;;;;;;;4.85;2.92;;;12.30;99.90;;;;;;5054715;28;20494;-75
2022/10/08 07:51:24;;;;;;;9.63;2.53;;;12.40;99.90;;;;;;5051286;28;21456;-75
2022/10/08 07:53:50;;;;;;;5.47;2.08;;;12.50;99.90;;;;;;5057236;28;20040;-76
2022/10/08 07:56:18;;;;;;;5.35;2.63;;;12.60;99.90;;;;;;5055063;28;20528;-75
2022/10/08 07:58:44;;;;;;;7.95;2.95;;;12.70;99.90;;;;;;5055914;28;20119;-76
2022/10/08 08:01:13;;;;;;;11.57;2.80;;;12.80;99.90;;;;;;5057547;28;20048;-76
2022/10/08 08:03:39;;;;;;;5.43;2.50;;;12.80;99.90;;;;;;5055143;28;20144;-75
2022/10/08 08:06:08;;;;;;;3.80;2.03;;;12.90;99.90;;;;;;5053823;28;20573;-76
2022/10/08 08:08:34;;;;;;;7.43;2.80;;;12.90;99.90;;;;;;5055560;28;20054;-76
2022/10/08 08:11:03;;;;;;;9.63;1.90;;;13.00;99.90;;;;;;5050036;28;20048;-77
2022/10/08 08:13:30;;;;;;;7.53;2.42;;;13.10;99.90;;;;;;5047355;28;20147;-76
2022/10/08 08:16:01;;;;;;;5.40;2.60;;;13.20;99.90;;;;;;5047549;28;20063;-76
2022/10/08 08:18:28;;;;;;;6.95;2.17;;;13.20;99.90;;;;;;5055078;28;20040;-76
2022/10/08 08:21:25;;;;;;;4.47;1.83;;;13.30;99.90;;;;;;5047294;28;20044;-76
2022/10/08 08:23:53;;;;;;;9.57;2.58;;;13.40;99.90;;;;;;5050557;28;20128;-75
2022/10/08 08:26:27;;;;;;;4.43;1.80;;;13.50;99.90;;;;;;5042599;28;20049;-76
2022/10/08 08:29:23;;;;;;;3.67;2.03;;;13.70;99.90;;;;;;5046599;28;20072;-76
2022/10/08 08:31:49;;;;;;;6.93;2.20;;;13.80;99.90;;;;;;5052328;28;20057;-76
2022/10/08 08:34:21;;;;;;;4.50;2.00;;;14.00;99.90;;;;;;5049248;28;20052;-76
2022/10/08 08:36:48;;;;;;;3.80;1.67;;;14.10;99.90;;;;;;5051455;28;20053;-76
2022/10/08 08:39:20;;;;;;;8.07;2.30;;;14.20;99.90;;;;;;5056681;28;20093;-76
2022/10/08 08:42:16;;;;;;;6.10;1.75;;;14.40;99.90;;;;;;5053407;28;20060;-76
2022/10/08 08:44:45;;;;;;;2.00;1.70;;;14.50;99.90;;;;;;5055143;28;20048;-75
2022/10/08 08:47:20;;;;;;;5.82;1.67;;;14.70;99.90;;;;;;5055185;28;20051;-80
2022/10/08 08:49:48;;;;;;;4.00;1.35;;;14.80;99.90;;;;;;5055550;28;20182;-77
2022/10/08 08:52:18;;;;;;;6.60;2.08;;;15.00;99.90;;;;;;5058653;28;20052;-74
2022/10/08 08:54:48;;;;;;;4.68;1.80;;;15.20;99.90;;;;;;5058304;28;20076;-76
2022/10/08 08:57:22;;;;;;;4.28;1.83;;;15.40;99.90;;;;;;5055427;28;20216;-73
2022/10/08 08:59:53;;;;;;;5.90;1.83;;;15.70;99.90;;;;;;5054395;28;20055;-74
2022/10/08 09:02:30;;;;;;;5.43;1.35;;;16.30;99.90;;;;;;5059148;28;20313;-75
2022/10/08 09:05:02;;;;;;;7.28;2.05;;;17.10;99.90;;;;;;5053059;28;20311;-74
2022/10/08 09:07:42;;;;;;;5.90;1.70;;;18.00;99.90;;;;;;5055135;28;20052;-74
2022/10/08 09:10:15;;;;;;;5.68;1.70;;;17.60;99.90;;;;;;5074108;28;20063;-76
2022/10/08 09:12:42;;;;;;;4.50;1.50;;;17.80;99.90;;;;;;5054012;28;20048;-76
2022/10/08 09:15:36;;;;;;;4.95;1.75;;;18.50;99.90;;;;;;5047335;28;20079;-76
2022/10/08 09:18:03;;;;;;;6.82;2.00;;;18.90;98.80;;;;;;5051018;28;20068;-77
2022/10/08 09:20:30;;;;;;;3.63;1.75;;;19.70;99.90;;;;;;5058167;28;20055;-76
2022/10/08 09:22:56;;;;;;;4.03;1.52;;;20.00;99.90;;;;;;5055959;28;20076;-76
2022/10/08 09:25:25;;;;;;;4.93;1.50;;;19.80;99.90;;;;;;5054835;28;20094;-76
2022/10/08 09:27:55;;;;;;;5.60;1.80;;;20.10;99.90;;;;;;5059264;28;20059;-76
2022/10/08 09:30:27;;;;;;;2.28;1.40;;;20.70;97.20;;;;;;5059519;28;20044;-76
2022/10/08 09:32:59;;;;;;;3.78;1.45;;;19.90;96.50;;;;;;5046843;28;20048;-76
2022/10/08 09:35:25;;;;;;;5.47;1.65;;;19.30;98.80;;;;;;5056266;28;20097;-77
2022/10/08 09:37:52;;;;;;;2.22;1.08;;;19.00;99.10;;;;;;5051829;28;20040;-75
2022/10/08 09:40:24;;;;;;;4.97;1.50;;;19.60;98.40;;;;;;5056830;28;20056;-75
2022/10/08 09:43:18;;;;;;;7.28;1.60;;;19.70;96.70;;;;;;5059819;28;20080;-75
2022/10/08 09:45:46;;;;;;;3.40;1.27;;;18.80;95.40;;;;;;5041074;28;20095;-76
2022/10/08 09:48:25;;;;;;;3.05;1.13;;;19.20;99.80;;;;;;5052722;28;20816;-76
2022/10/08 09:50:56;;;;;;;6.88;1.58;;;20.30;98.30;;;;;;5050584;28;20109;-76
2022/10/08 09:53:24;;;;;;;5.22;1.67;;;21.50;96.30;;;;;;5055700;28;20048;-77
2022/10/08 09:56:02;;;;;;;3.40;1.25;;;22.00;93.70;;;;;;5049966;28;20077;-78
2022/10/08 09:58:34;;;;;;;4.50;1.23;;;22.40;92.00;;;;;;5053376;28;20764;-77
2022/10/08 10:01:04;;;;;;;4.18;1.30;;;22.70;92.40;;;;;;5049715;28;20087;-76
2022/10/08 10:03:30;;;;;;;2.35;1.10;;;22.90;92.60;;;;;;5056190;28;20045;-76
2022/10/08 10:05:58;;;;;;;4.45;1.33;;;22.70;85.70;;;;;;5046622;28;20061;-76
2022/10/08 10:08:45;;;;;;;3.08;1.30;;;22.50;88.00;;;;;;5049901;28;20106;-76
2022/10/08 10:11:18;;;;;;;4.05;1.25;;;21.50;87.40;;;;;;5051856;28;20684;-76
2022/10/08 10:13:45;;;;;;;4.28;1.40;;;19.80;90.30;;;;;;5051070;28;20060;-76
2022/10/08 10:16:16;;;;;;;3.95;1.35;;;19.90;93.20;;;;;;5038660;28;20182;-76
2022/10/08 10:19:14;;;;;;;4.97;1.50;;;21.10;92.60;;;;;;5040471;28;20240;-76
2022/10/08 10:21:53;;;;;;;4.07;1.42;;;21.50;90.30;;;;;;5043474;28;20142;-76
2022/10/08 10:24:57;;;;;;;4.53;1.67;;;20.00;88.90;;;;;;5039252;28;20804;-77
2022/10/08 10:27:29;;;;;;;9.40;1.80;;;18.70;91.20;;;;;;5047282;28;20774;-76
2022/10/08 10:30:14;;;;;;;4.93;1.65;;;17.40;92.80;;;;;;5076180;28;20521;-77
2022/10/08 10:32:46;;;;;;;4.55;1.67;;;16.70;94.30;;;;;;5047572;28;20126;-76
2022/10/08 10:35:18;;;;;;;6.70;2.03;;;16.30;96.40;;;;;;5054046;28;20048;-76
2022/10/08 10:37:49;;;;;;;4.30;1.50;;;16.20;97.30;;;;;;5089796;28;20133;-75
2022/10/08 10:40:40;;;;;;;5.30;2.05;;;16.10;97.90;;;;;;5055653;28;20056;-76
2022/10/08 10:43:32;;;;;;;5.82;1.77;;;16.20;98.20;;;;;;5057864;28;20044;-77
2022/10/08 10:46:19;;;;;;;3.83;1.63;;;16.20;98.10;;;;;;5045035;28;20044;-76
2022/10/08 10:48:45;;;;;;;3.55;1.42;;;16.30;97.60;;;;;;5046835;28;20048;-78
2022/10/08 10:51:39;;;;;;;3.85;1.50;;;16.20;97.30;;;;;;5054932;28;20053;-78
2022/10/08 10:54:29;;;;;;;5.68;1.95;;;16.10;97.50;;;;;;5056637;28;20036;-77
2022/10/08 10:57:02;;;;;;;3.65;1.83;;;16.00;97.50;;;;;;5057891;28;20053;-76
2022/10/08 10:59:47;;;;;;;4.93;1.38;;;15.90;98.10;;;;;;5055344;28;20843;-76
2022/10/08 11:02:25;;;;;;;4.40;1.50;;;15.80;97.70;;;;;;5058148;28;20053;-78
2022/10/08 11:04:58;;;;;;;3.80;1.65;;;15.80;98.20;;;;;;5040046;28;20086;-77
2022/10/08 11:07:52;;;;;;;3.65;1.55;;;15.80;96.80;;;;;;5052546;28;20063;-77
2022/10/08 11:10:41;;;;;;;6.18;1.50;;;15.80;96.00;;;;;;5055053;28;20040;-77
2022/10/08 11:13:20;;;;;;;5.38;1.92;;;15.90;97.20;;;;;;5057050;28;20125;-75
2022/10/08 11:16:17;;;;;;;4.40;1.67;;;15.90;96.40;;;;;;5045559;28;20134;-76
2022/10/08 11:18:57;;;;;;;4.65;1.20;;;16.00;96.60;;;;;;5047303;28;20052;-76
2022/10/08 11:21:42;;;;;;;2.13;1.27;;;16.10;96.70;;;;;;5056424;28;20107;-76
2022/10/08 11:24:42;;;;;;;6.18;2.10;;;16.10;96.10;;;;;;5055517;28;20390;-77
2022/10/08 11:27:16;;;;;;;3.85;1.45;;;16.10;95.80;;;;;;5046992;28;20083;-76
2022/10/08 11:30:11;;;;;;;4.75;1.50;;;16.10;95.50;;;;;;5086195;28;20087;-77
2022/10/08 11:32:38;;;;;;;4.10;1.40;;;16.20;95.80;;;;;;5050091;28;20048;-78
2022/10/08 11:35:37;;;;;;;3.35;1.60;;;16.10;94.50;;;;;;5054252;28;20121;-76
2022/10/08 11:38:32;;;;;;;3.90;1.58;;;16.00;95.50;;;;;;5056386;28;20056;-78
2022/10/08 11:41:08;;;;;;;4.65;1.92;;;16.00;94.60;;;;;;5000549;28;20065;-78
2022/10/08 11:43:56;;;;;;;4.22;2.20;;;16.10;95.30;;;;;;5056369;28;20036;-77
2022/10/08 11:46:30;;;;;;;5.75;1.80;;;16.30;95.10;;;;;;5051605;28;20803;-78
2022/10/08 11:49:11;;;;;;;5.07;2.03;;;16.40;95.20;;;;;;5054110;28;20084;-77
2022/10/08 11:51:38;;;;;;;4.32;2.03;;;16.30;95.40;;;;;;5054699;28;20056;-77
2022/10/08 11:54:13;;;;;;;7.18;2.25;;;16.30;95.40;;;;;;5053297;28;20046;-76
2022/10/08 11:56:51;;;;;;;8.98;1.92;;;16.20;96.40;;;;;;5054291;28;20051;-77
2022/10/08 11:59:38;;;;;;;3.25;1.67;;;16.30;96.60;;;;;;5053222;28;20124;-77
2022/10/08 12:02:30;;;;;;;6.78;2.03;;;16.30;95.40;;;;;;5054633;28;20068;-76
2022/10/08 12:05:42;;;;;;;4.82;2.47;;;16.20;95.70;;;;;;5052989;28;20076;-76
2022/10/08 12:08:08;;;;;;;3.60;1.30;;;16.10;96.30;;;;;;5049187;28;20073;-76
2022/10/08 12:10:36;;;;;;;2.75;1.50;;;16.00;97.00;;;;;;5055771;28;20113;-75
2022/10/08 12:13:11;;;;;;;4.30;1.30;;;15.90;96.20;;;;;;5088023;28;20480;-77
2022/10/08 12:15:39;;;;;;;1.58;1.08;;;15.90;95.90;;;;;;5057061;28;20048;-76
2022/10/08 12:18:16;;;;;;;3.03;1.20;;;15.60;97.40;;;;;;5055571;28;20048;-75
2022/10/08 12:20:42;;;;;;;1.52;0.90;;;15.80;98.30;;;;;;5085271;28;20058;-76
2022/10/08 12:23:09;;;;;;;6.85;2.10;;;15.90;99.90;;;;;;5063474;28;20119;-77
2022/10/08 12:26:01;;;;;;;2.85;1.30;;;15.80;99.90;;;;;;5069094;28;20049;-77
2022/10/08 12:28:27;;;;;;;3.95;1.75;;;15.90;99.90;;;;;;5058414;28;20044;-78
2022/10/08 12:31:13;;;;;;;3.75;1.65;;;15.40;99.90;;;;;;5051544;28;20040;-76
2022/10/08 12:33:40;;;;;;;5.80;2.35;;;15.00;99.90;;;;;;5050114;28;20941;-76
2022/10/08 12:36:13;;;;;;;8.48;1.83;;;14.80;99.90;;;;;;5056530;28;20174;-76
2022/10/08 12:39:01;;;;;;;3.38;2.15;;;14.70;99.90;;;;;;5060353;28;20427;-75
2022/10/08 12:41:47;;;;;;;3.63;2.00;;;14.70;99.90;;;;;;5093143;28;20156;-77
2022/10/08 12:44:22;;;;;;;7.00;2.28;;;14.80;99.90;;;;;;5047642;28;20082;-76
2022/10/08 12:46:51;;;;;;;4.93;2.35;;;15.00;99.90;;;;;;5038749;28;20052;-77
2022/10/08 12:49:43;;;;;;;6.90;2.10;;;15.10;99.90;;;;;;5053790;28;20109;-83
2022/10/08 12:52:17;;;;;;;4.20;1.80;;;15.00;99.90;;;;;;5080445;28;20628;-87
2022/10/08 12:54:58;;;;;;;7.47;2.38;;;14.80;99.90;;;;;;5050677;28;20037;-86
2022/10/08 12:57:37;;;;;;;4.43;2.35;;;14.90;99.90;;;;;;5050094;28;20052;-80
2022/10/08 13:00:09;;;;;;;5.80;2.10;;;15.00;99.90;;;;;;5083558;28;20367;-79
2022/10/08 13:02:40;;;;;;;8.95;1.88;;;15.10;99.90;;;;;;5053942;28;20040;-81
2022/10/08 13:05:24;;;;;;;5.25;1.83;;;15.10;99.90;;;;;;5042641;28;20053;-82
2022/10/08 13:07:49;;;;;;;;;;;15.30;99.90;;;;;;5043157;28;20114;-83
2022/10/08 13:10:22;;;;;;;6.20;2.58;;;15.50;99.90;;;;;;5051754;28;20381;-79
2022/10/08 13:13:04;;;;;;;3.75;2.08;;;15.70;99.90;;;;;;5050058;28;20513;-76
2022/10/08 13:15:32;;;;;;;7.43;2.05;;;16.00;99.90;;;;;;5048421;28;20818;-77